Time;durP1;ratioP1;P1;durP2;ratioP2;P2;SDS_P1;SDS_P2;PMS_P1;PMS_P2;Temp;Humidity;BMP_temperature;BMP_pressure;BME280_temperature;BME280_humidity;BME280_pressure;Samples;Min_cycle;Max_cycle;Signal;HPM_P1;HPM_P2
2022/06/05 00:01:08;;;;;;;49.70;45.00;;;;;;;15.42;100.00;99270.98;105296;1268;76103;-80
2022/06/05 00:03:38;;;;;;;49.90;44.80;;;;;;;15.40;100.00;99270.02;105301;1268;68855;-80
2022/06/05 00:06:14;;;;;;;48.50;43.70;;;;;;;15.37;100.00;99270.04;105253;1268;74323;-79
2022/06/05 00:08:59;;;;;;;46.80;42.30;;;;;;;15.33;100.00;99269.30;105255;1268;62432;-79
2022/06/05 00:11:31;;;;;;;48.60;43.80;;;;;;;15.29;100.00;99269.71;105294;1268;62082;-82
2022/06/05 00:13:57;;;;;;;72.20;46.60;;;;;;;15.24;100.00;99276.86;105267;1268;75334;-81
2022/06/05 00:16:29;;;;;;;53.00;47.30;;;;;;;15.23;100.00;99282.34;105299;1268;68177;-81
2022/06/05 00:18:55;;;;;;;166.70;48.70;;;;;;;15.24;100.00;99280.45;105605;1268;74491;-81
2022/06/05 00:21:23;;;;;;;84.90;49.70;;;;;;;15.24;100.00;99276.47;105321;1268;62652;-81
2022/06/05 00:23:50;;;;;;;105.60;47.40;;;;;;;15.25;100.00;99276.09;105045;1271;62055;-80
2022/06/05 00:26:43;;;;;;;113.40;47.90;;;;;;;15.26;100.00;99271.84;105302;1268;76554;-80
2022/06/05 00:29:39;;;;;;;64.20;45.60;;;;;;;15.27;100.00;99274.11;105272;1268;69928;-84
2022/06/05 00:32:25;;;;;;;79.30;48.60;;;;;;;15.24;100.00;99270.05;104532;1276;74423;-80
2022/06/05 00:34:51;;;;;;;78.00;45.70;;;;;;;15.20;100.00;99270.55;104566;1276;62232;-81
2022/06/05 00:37:34;;;;;;;65.80;43.80;;;;;;;15.17;100.00;99268.17;104471;1277;62290;-81
2022/06/05 00:40:09;;;;;;;66.10;44.90;;;;;;;15.13;100.00;99268.79;104600;1276;75514;-82
2022/06/05 00:42:37;;;;;;;66.30;43.70;;;;;;;15.12;100.00;99269.09;104549;1276;70427;-81
2022/06/05 00:45:11;;;;;;;48.30;42.20;;;;;;;15.12;100.00;99272.42;104307;1276;332972;-81
2022/06/05 00:47:40;;;;;;;48.20;43.20;;;;;;;15.14;100.00;99272.85;104611;1276;62241;-80
2022/06/05 00:50:17;;;;;;;46.20;41.90;;;;;;;15.15;100.00;99271.52;104449;1277;62279;-82
2022/06/05 00:52:48;;;;;;;47.50;42.70;;;;;;;15.14;100.00;99273.88;104590;1276;77126;-84
2022/06/05 00:55:16;;;;;;;44.70;40.30;;;;;;;15.15;100.00;99267.59;104603;1276;69230;-82
2022/06/05 00:57:42;;;;;;;56.20;43.80;;;;;;;15.16;100.00;99264.29;104394;1280;73816;-81
2022/06/05 01:00:14;;;;;;;51.10;45.60;;;;;;;15.18;100.00;99264.34;104550;1276;62385;-81
2022/06/05 01:02:43;;;;;;;51.50;44.90;;;;;;;15.19;100.00;99258.84;104466;1281;62185;-79
2022/06/05 01:05:13;;;;;;;51.20;45.70;;;;;;;15.20;100.00;99260.02;104654;1276;76591;-80
2022/06/05 01:07:40;;;;;;;52.20;46.60;;;;;;;15.22;100.00;99267.38;104542;1276;69259;-79
2022/06/05 01:10:08;;;;;;;48.50;43.50;;;;;;;15.23;100.00;99267.30;104966;1271;72186;-82
2022/06/05 01:12:57;;;;;;;47.90;43.00;;;;;;;15.23;100.00;99261.54;104985;1272;62127;-79
2022/06/05 01:15:36;;;;;;;51.70;45.60;;;;;;;15.24;100.00;99261.83;105206;1269;62315;-79
2022/06/05 01:18:15;;;;;;;52.80;47.20;;;;;;;15.25;100.00;99261.52;105222;1271;76028;-80
2022/06/05 01:21:00;;;;;;;59.00;48.30;;;;;;;15.28;100.00;99261.90;104971;1274;69267;-79
2022/06/05 01:23:53;;;;;;;85.40;50.90;;;;;;;15.28;100.00;99265.04;104966;1272;73285;-81
2022/06/05 01:26:25;;;;;;;86.60;49.00;;;;;;;15.29;100.00;99263.38;105239;1271;62203;-81
2022/06/05 01:29:09;;;;;;;71.20;48.30;;;;;;;15.30;100.00;99266.48;105180;1270;62088;-82
2022/06/05 01:31:53;;;;;;;139.40;49.40;;;;;;;15.31;100.00;99264.33;104907;1274;76061;-82
2022/06/05 01:34:32;;;;;;;142.80;50.20;;;;;;;15.30;100.00;99259.55;105231;1271;69313;-81
2022/06/05 01:37:23;;;;;;;140.90;47.50;;;;;;;15.29;100.00;99254.59;105188;1271;73411;-79
2022/06/05 01:40:02;;;;;;;128.70;46.80;;;;;;;15.29;100.00;99255.88;105185;1271;62512;-80
2022/06/05 01:42:35;;;;;;;161.80;46.50;;;;;;;15.29;100.00;99253.73;105191;1271;62168;-82
2022/06/05 01:45:07;;;;;;;157.00;45.40;;;;;;;15.29;100.00;99260.02;105223;1271;76216;-81
2022/06/05 01:47:39;;;;;;;162.80;47.50;;;;;;;15.30;100.00;99258.50;105217;1271;69418;-79
2022/06/05 01:50:16;;;;;;;193.30;46.10;;;;;;;15.31;100.00;99258.25;105156;1270;75030;-81
2022/06/05 01:52:53;;;;;;;182.60;43.30;;;;;;;15.30;100.00;99256.30;105186;1271;62118;-80
2022/06/05 01:55:27;;;;;;;197.60;42.90;;;;;;;15.29;100.00;99259.43;105257;1271;62160;-81
2022/06/05 01:57:57;;;;;;;237.50;44.60;;;;;;;15.28;100.00;99257.89;105178;1271;77274;-80
2022/06/05 02:00:36;;;;;;;;;;;;;;;15.27;100.00;99256.77;105242;1271;69104;-81
2022/06/05 02:03:33;;;;;;;142.00;37.50;;;;;;;15.23;100.00;99258.86;105179;1271;73369;-81
2022/06/05 02:06:11;;;;;;;228.00;39.20;;;;;;;15.21;100.00;99261.69;104959;1274;62196;-82
2022/06/05 02:08:46;;;;;;;212.30;40.30;;;;;;;15.20;100.00;99270.60;105190;1271;62063;-81
2022/06/05 02:11:16;;;;;;;226.80;41.30;;;;;;;15.18;100.00;99266.80;105226;1271;76155;-81
2022/06/05 02:13:42;;;;;;;235.10;42.20;;;;;;;15.17;100.00;99264.75;105236;1271;68267;-80
2022/06/05 02:16:09;;;;;;;189.00;40.80;;;;;;;15.15;100.00;99263.27;105209;1271;73411;-83
2022/06/05 02:18:36;;;;;;;132.30;40.50;;;;;;;15.13;100.00;99262.91;105231;1271;62199;-80
2022/06/05 02:21:04;;;;;;;144.00;42.90;;;;;;;15.12;100.00;99266.03;105002;1271;62255;-80
2022/06/05 02:23:33;;;;;;;147.50;42.20;;;;;;;15.11;100.00;99268.05;105291;1271;75838;-81
2022/06/05 02:26:01;;;;;;;127.30;41.20;;;;;;;15.11;100.00;99266.66;105396;1271;69082;-81
2022/06/05 02:28:28;;;;;;;123.20;41.70;;;;;;;15.11;100.00;99269.88;105208;1271;74433;-81
2022/06/05 02:31:37;;;;;;;126.10;42.20;;;;;;;15.11;100.00;99273.83;105309;1269;62068;-82
2022/06/05 02:34:33;;;;;;;101.90;42.60;;;;;;;15.11;100.00;99275.63;104965;1268;62093;-81
2022/06/05 02:37:24;;;;;;;93.30;41.10;;;;;;;15.10;100.00;99272.42;105142;1271;77174;-81
2022/06/05 02:39:54;;;;;;;74.20;41.60;;;;;;;15.11;100.00;99267.90;105277;1268;70342;-83
2022/06/05 02:42:41;;;;;;;76.30;40.50;;;;;;;15.11;100.00;99270.95;105251;1268;74399;-80
2022/06/05 02:45:27;;;;;;;76.90;38.60;;;;;;;15.11;100.00;99271.86;105295;1268;62120;-80
2022/06/05 02:48:06;;;;;;;61.30;39.40;;;;;;;15.11;100.00;99269.64;105278;1268;61965;-82
2022/06/05 02:50:48;;;;;;;55.60;39.30;;;;;;;15.12;100.00;99272.42;105286;1268;76542;-84
2022/06/05 02:53:15;;;;;;;59.60;39.50;;;;;;;15.15;100.00;99277.96;105257;1269;70730;-82
2022/06/05 02:55:42;;;;;;;56.00;41.60;;;;;;;15.17;100.00;99273.85;105291;1268;71293;-80
2022/06/05 02:58:11;;;;;;;68.40;41.30;;;;;;;15.20;100.00;99279.88;105300;1267;61975;-82
2022/06/05 03:00:39;;;;;;;73.10;38.90;;;;;;;15.23;100.00;99279.82;105487;1268;62009;-79
2022/06/05 03:05:51;;;;;;;85.50;41.00;;;;;;;15.31;100.00;99278.10;105270;1268;69197;-81
2022/06/05 03:08:19;;;;;;;88.00;42.40;;;;;;;15.34;100.00;99277.97;105267;1268;74230;-81
2022/06/05 03:10:46;;;;;;;79.30;42.10;;;;;;;15.40;100.00;99282.91;105261;1268;61982;-82
2022/06/05 03:13:14;;;;;;;87.00;42.50;;;;;;;15.46;100.00;99284.23;105314;1268;62515;-82
2022/06/05 03:15:41;;;;;;;79.70;40.80;;;;;;;15.50;100.00;99287.10;105295;1268;77206;-82
2022/06/05 03:18:09;;;;;;;72.20;41.50;;;;;;;15.54;100.00;99287.68;105305;1268;69252;-82
2022/06/05 03:20:36;;;;;;;98.70;42.30;;;;;;;15.58;100.00;99287.84;105306;1268;74263;-81
2022/06/05 03:23:03;;;;;;;111.90;42.90;;;;;;;15.64;100.00;99287.93;104988;1268;62538;-80
2022/06/05 03:25:30;;;;;;;84.20;40.50;;;;;;;15.69;100.00;99288.61;105344;1268;62191;-79
2022/06/05 03:27:57;;;;;;;144.00;40.10;;;;;;;15.74;100.00;99284.95;104996;1269;76060;-81
2022/06/05 03:30:24;;;;;;;224.10;40.80;;;;;;;15.77;100.00;99287.35;105279;1268;70625;-80
2022/06/05 03:32:51;;;;;;;234.00;38.90;;;;;;;15.78;100.00;99287.08;105327;1268;73294;-80
2022/06/05 03:35:18;;;;;;;138.70;36.90;;;;;;;15.79;100.00;99291.50;105281;1267;62140;-80
2022/06/05 03:37:45;;;;;;;177.60;34.50;;;;;;;15.80;100.00;99300.01;105329;1268;62020;-82
2022/06/05 03:40:14;;;;;;;197.00;32.10;;;;;;;15.80;100.00;99297.48;105286;1268;77047;-78
2022/06/05 03:42:42;;;;;;;90.90;30.70;;;;;;;15.81;100.00;99290.83;105052;1268;70164;-81
2022/06/05 03:45:16;;;;;;;116.80;28.70;;;;;;;15.84;100.00;99288.25;105287;1268;73119;-81
2022/06/05 03:47:44;;;;;;;128.60;31.30;;;;;;;15.85;100.00;99286.75;105278;1268;62181;-82
2022/06/05 03:50:12;;;;;;;90.50;31.70;;;;;;;15.88;100.00;99290.98;105022;1269;62029;-81
2022/06/05 03:52:39;;;;;;;84.80;29.60;;;;;;;15.93;100.00;99287.48;105310;1268;77451;-80
2022/06/05 03:55:05;;;;;;;113.80;32.30;;;;;;;15.98;100.00;99283.67;105318;1268;67321;-82
2022/06/05 03:57:32;;;;;;;112.20;30.60;;;;;;;16.03;100.00;99294.02;105303;1268;73263;-80
2022/06/05 03:59:59;;;;;;;89.40;32.70;;;;;;;16.07;100.00;99291.87;105280;1268;62079;-79
2022/06/05 04:02:25;;;;;;;114.60;30.70;;;;;;;16.12;100.00;99285.73;105293;1268;62076;-80
2022/06/05 04:04:52;;;;;;;171.20;30.70;;;;;;;16.16;100.00;99289.44;105256;1268;76022;-79
2022/06/05 04:07:20;;;;;;;98.20;29.90;;;;;;;16.18;100.00;99295.77;105323;1268;70801;-80
2022/06/05 04:09:46;;;;;;;138.40;27.40;;;;;;;16.21;100.00;99293.18;105221;1267;73163;-81
2022/06/05 04:12:13;;;;;;;137.30;26.30;;;;;;;16.25;100.00;99303.76;105290;1268;62173;-80
2022/06/05 04:14:39;;;;;;;132.40;26.30;;;;;;;16.28;100.00;99314.48;104970;1269;62464;-81
2022/06/05 04:17:06;;;;;;;155.70;27.60;;;;;;;16.27;100.00;99319.52;105253;1268;62095;-80
2022/06/05 04:19:32;;;;;;;120.20;26.00;;;;;;;16.28;100.00;99315.86;105253;1268;62180;-83
2022/06/05 04:22:00;;;;;;;63.10;27.10;;;;;;;16.34;100.00;99317.89;105269;1268;61975;-81
2022/06/05 04:24:26;;;;;;;114.40;26.30;;;;;;;16.42;100.00;99325.45;104963;1271;62392;-82
2022/06/05 04:26:53;;;;;;;76.00;26.10;;;;;;;16.43;100.00;99321.73;105265;1267;62195;-80
2022/06/05 04:29:19;;;;;;;95.50;25.00;;;;;;;16.49;100.00;99321.95;105272;1268;62137;-81
2022/06/05 04:31:48;;;;;;;86.40;26.80;;;;;;;16.51;100.00;99326.44;105267;1268;62094;-80
2022/06/05 04:34:22;;;;;;;45.10;29.20;;;;;;;16.49;100.00;99324.46;105293;1268;74290;-80
2022/06/05 04:36:49;;;;;;;45.40;29.30;;;;;;;16.56;100.00;99324.73;105351;1268;62110;-80
2022/06/05 04:39:16;;;;;;;40.50;30.80;;;;;;;16.62;100.00;99328.40;105157;1268;62253;-80
2022/06/05 04:41:43;;;;;;;39.30;29.20;;;;;;;16.67;100.00;99321.98;105262;1268;76183;-79
2022/06/05 04:44:13;;;;;;;49.40;32.80;;;;;;;16.71;100.00;99329.93;105293;1268;70386;-80
2022/06/05 04:46:40;;;;;;;38.30;31.80;;;;;;;16.72;100.00;99324.52;105311;1268;73154;-81
2022/06/05 04:49:07;;;;;;;35.50;31.30;;;;;;;16.77;100.00;99322.27;105281;1267;62050;-80
2022/06/05 04:51:34;;;;;;;38.30;32.00;;;;;;;16.86;100.00;99319.16;105291;1267;62037;-81
2022/06/05 04:54:01;;;;;;;36.20;32.60;;;;;;;16.91;100.00;99318.20;105322;1268;75456;-80
2022/06/05 04:56:29;;;;;;;33.80;30.50;;;;;;;17.04;100.00;99321.86;105290;1268;69388;-81
2022/06/05 04:58:56;;;;;;;37.20;33.10;;;;;;;17.06;100.00;99324.52;105534;1268;73471;-80
2022/06/05 05:01:26;;;;;;;38.00;34.10;;;;;;;17.08;100.00;99331.02;105290;1267;62114;-81
2022/06/05 05:03:54;;;;;;;;;;;;;;;17.05;100.00;99332.71;105469;1268;62098;-80
2022/06/05 05:06:21;;;;;;;39.00;35.00;;;;;;;17.00;100.00;99338.89;105267;1268;76891;-80
2022/06/05 05:08:48;;;;;;;38.80;35.00;;;;;;;17.06;100.00;99337.42;104982;1272;69179;-80
2022/06/05 05:11:16;;;;;;;37.70;33.80;;;;;;;17.17;100.00;99332.16;105026;1271;62120;-79
2022/06/05 05:13:43;;;;;;;37.50;33.70;;;;;;;17.36;100.00;99329.25;105333;1268;62107;-79
2022/06/05 05:16:09;;;;;;;39.60;35.80;;;;;;;17.47;100.00;99333.05;105272;1268;62015;-81
2022/06/05 05:18:36;;;;;;;39.70;35.80;;;;;;;17.69;100.00;99332.21;105005;1268;76901;-81
2022/06/05 05:21:09;;;;;;;40.50;36.50;;;;;;;17.84;100.00;99336.21;105308;1268;70201;-80
2022/06/05 05:23:35;;;;;;;41.20;37.30;;;;;;;17.89;100.00;99331.30;105312;1268;74627;-81
2022/06/05 05:26:15;;;;;;;44.60;40.40;;;;;;;18.08;100.00;99328.27;105329;1268;62013;-81
2022/06/05 05:28:43;;;;;;;42.50;38.40;;;;;;;18.33;100.00;99325.95;105322;1268;62138;-80
2022/06/05 05:31:19;;;;;;;44.50;40.20;;;;;;;18.47;100.00;99330.38;105397;1268;76533;-81
2022/06/05 05:33:49;;;;;;;45.70;41.30;;;;;;;18.49;100.00;99335.27;105296;1268;68243;-81
2022/06/05 05:36:18;;;;;;;47.20;42.50;;;;;;;18.50;100.00;99329.55;105349;1268;74239;-80
2022/06/05 05:44:18;;;;;;;41.20;37.40;;;;;;;20.02;100.00;99323.98;105283;1268;76802;-81
2022/06/05 05:46:45;;;;;;;40.70;37.00;;;;;;;20.81;100.00;99319.88;105329;1268;70391;-81
2022/06/05 05:49:13;;;;;;;40.90;37.20;;;;;;;21.02;100.00;99328.35;105237;1268;73219;-81
2022/06/05 05:51:39;;;;;;;39.30;35.60;;;;;;;21.09;100.00;99321.86;105309;1268;62484;-81
2022/06/05 05:54:06;;;;;;;42.50;38.60;;;;;;;21.24;100.00;99322.19;105284;1268;62094;-80
2022/06/05 05:56:33;;;;;;;40.60;37.00;;;;;;;21.25;100.00;99325.08;105315;1268;77079;-83
2022/06/05 05:59:00;;;;;;;40.30;36.60;;;;;;;21.32;100.00;99322.42;105270;1268;68787;-78
2022/06/05 06:01:27;;;;;;;41.80;37.90;;;;;;;21.48;100.00;99321.65;105350;1268;73253;-80
2022/06/05 06:03:54;;;;;;;41.80;38.00;;;;;;;21.66;100.00;99321.39;105380;1268;62158;-80
2022/06/05 06:06:30;;;;;;;42.70;38.70;;;;;;;21.78;100.00;99319.68;105242;1268;63547;-80
2022/06/05 06:08:58;;;;;;;42.50;38.50;;;;;;;21.84;100.00;99315.73;105386;1268;76022;-80
2022/06/05 06:11:26;;;;;;;40.10;36.30;;;;;;;22.00;100.00;99316.14;105341;1268;68991;-80
2022/06/05 06:13:52;;;;;;;40.40;37.00;;;;;;;22.15;100.00;99314.23;105245;1268;72660;-80
2022/06/05 06:16:19;;;;;;;42.80;38.90;;;;;;;22.21;100.00;99316.33;105230;1268;62106;-79
2022/06/05 06:18:45;;;;;;;41.40;37.80;;;;;;;22.21;100.00;99318.43;105266;1268;61969;-80
2022/06/05 06:21:13;;;;;;;41.30;37.60;;;;;;;22.23;100.00;99318.70;105282;1268;62025;-82
2022/06/05 06:23:39;;;;;;;44.10;40.20;;;;;;;22.33;100.00;99317.79;105354;1268;70072;-81
2022/06/05 06:26:08;;;;;;;42.50;38.90;;;;;;;22.52;100.00;99313.12;105271;1268;62416;-80
2022/06/05 06:28:34;;;;;;;42.10;38.40;;;;;;;22.72;100.00;99312.71;105288;1268;62481;-81
2022/06/05 06:31:05;;;;;;;42.60;38.90;;;;;;;22.86;100.00;99312.79;105277;1268;62084;-81
2022/06/05 06:33:32;;;;;;;41.00;37.50;;;;;;;23.01;100.00;99309.38;105195;1268;75908;-80
2022/06/05 06:36:09;;;;;;;41.40;37.70;;;;;;;23.11;100.00;99306.90;105223;1268;70342;-81
2022/06/05 06:38:35;;;;;;;43.30;39.40;;;;;;;23.47;100.00;99303.46;105247;1268;74290;-80
2022/06/05 06:41:05;;;;;;;42.50;38.80;;;;;;;23.50;100.00;99304.36;105188;1268;62083;-81
2022/06/05 06:43:33;;;;;;;40.00;36.30;;;;;;;23.51;100.00;99307.23;105234;1268;62162;-80
2022/06/05 06:46:00;;;;;;;39.00;35.60;;;;;;;23.51;100.00;99308.77;105278;1267;75903;-81
2022/06/05 06:48:27;;;;;;;40.00;36.60;;;;;;;23.60;100.00;99303.09;105220;1268;69231;-79
2022/06/05 06:50:55;;;;;;;40.70;37.00;;;;;;;23.83;100.00;99297.27;105281;1268;74366;-82
2022/06/05 06:53:23;;;;;;;40.70;37.30;;;;;;;24.04;100.00;99295.71;105313;1268;62219;-83
2022/06/05 06:55:50;;;;;;;40.60;37.20;;;;;;;24.51;100.00;99291.41;105070;1268;62086;-81
2022/06/05 06:58:17;;;;;;;41.60;37.70;;;;;;;24.82;100.00;99291.27;105232;1268;76113;-82
2022/06/05 07:00:44;;;;;;;42.30;38.80;;;;;;;25.31;100.00;99289.73;105229;1268;69167;-82
2022/06/05 07:03:11;;;;;;;43.30;39.60;;;;;;;25.58;100.00;99291.34;105250;1268;74172;-80
2022/06/05 07:05:40;;;;;;;48.20;44.00;;;;;;;25.61;100.00;99292.11;105301;1268;62144;-80
2022/06/05 07:08:08;;;;;;;46.50;42.40;;;;;;;25.27;100.00;99290.38;105486;1267;62085;-83
2022/06/05 07:10:36;;;;;;;43.00;39.30;;;;;;;25.14;100.00;99291.55;105257;1268;76024;-82
2022/06/05 07:13:03;;;;;;;46.60;42.40;;;;;;;25.19;100.00;99292.94;105259;1267;69360;-81
2022/06/05 07:15:34;;;;;;;46.10;42.10;;;;;;;25.40;100.00;99291.16;105405;1268;75004;-82
2022/06/05 07:18:05;;;;;;;45.70;41.80;;;;;;;25.50;100.00;99291.83;105329;1268;62212;-82
2022/06/05 07:20:38;;;;;;;41.40;38.00;;;;;;;25.60;100.00;99288.29;105370;1268;62191;-81
2022/06/05 07:23:05;;;;;;;41.60;38.20;;;;;;;25.52;100.00;99285.93;105280;1268;75934;-82
2022/06/05 07:25:34;;;;;;;43.50;39.90;;;;;;;25.18;100.00;99289.60;105379;1268;69511;-80
2022/06/05 07:28:02;;;;;;;41.60;38.20;;;;;;;24.96;100.00;99294.42;105308;1268;73603;-79
2022/06/05 07:30:30;;;;;;;42.00;38.50;;;;;;;24.85;100.00;99294.55;105652;1268;62150;-82
2022/06/05 07:32:57;;;;;;;38.00;34.80;;;;;;;24.68;100.00;99297.56;105106;1268;62044;-79
2022/06/05 07:35:23;;;;;;;38.50;35.00;;;;;;;24.58;100.00;99301.55;105201;1268;75956;-80
2022/06/05 07:37:50;;;;;;;41.10;37.60;;;;;;;24.64;100.00;99304.44;105236;1268;70569;-81
2022/06/05 07:40:17;;;;;;;42.50;38.70;;;;;;;24.74;100.00;99303.19;105215;1268;62054;-81
2022/06/05 07:42:44;;;;;;;42.10;38.40;;;;;;;24.74;100.00;99303.91;105219;1268;62078;-80
2022/06/05 07:45:14;;;;;;;40.10;36.70;;;;;;;24.76;100.00;99305.44;105243;1268;62072;-80
2022/06/05 07:47:41;;;;;;;;;;;;;;;24.76;100.00;99305.27;105487;1268;76125;-82
2022/06/05 07:50:08;;;;;;;41.50;37.90;;;;;;;24.74;100.00;99308.30;105279;1268;70142;-81
2022/06/05 07:55:21;;;;;;;41.50;38.20;;;;;;;24.58;100.00;99309.89;105263;1268;62082;-80
2022/06/05 07:57:48;;;;;;;40.50;36.90;;;;;;;24.47;100.00;99310.77;105251;1266;62111;-81
2022/06/05 08:00:15;;;;;;;38.70;35.40;;;;;;;24.44;100.00;99312.63;105226;1268;74326;-81
2022/06/05 08:02:42;;;;;;;40.70;37.00;;;;;;;24.47;100.00;99313.54;105266;1268;68696;-81
2022/06/05 08:05:09;;;;;;;34.60;31.60;;;;;;;24.51;100.00;99309.79;105124;1268;72593;-79
2022/06/05 08:07:36;;;;;;;36.00;32.70;;;;;;;24.50;100.00;99307.92;105275;1268;62079;-78
2022/06/05 08:10:04;;;;;;;29.10;26.80;;;;;;;24.43;100.00;99307.41;105235;1268;62799;-83
2022/06/05 08:12:33;;;;;;;31.60;28.90;;;;;;;24.37;100.00;99307.06;105351;1268;76815;-80
2022/06/05 08:15:10;;;;;;;31.10;28.40;;;;;;;24.33;100.00;99304.23;105288;1268;69116;-81
2022/06/05 08:17:37;;;;;;;29.10;26.70;;;;;;;24.48;100.00;99302.89;104926;1268;73616;-82
2022/06/05 08:20:05;;;;;;;34.80;31.70;;;;;;;24.61;100.00;99300.92;105237;1268;62173;-82
2022/06/05 08:22:32;;;;;;;33.50;30.60;;;;;;;24.53;100.00;99301.19;105321;1268;62098;-81
2022/06/05 08:24:58;;;;;;;30.50;27.80;;;;;;;24.47;100.00;99296.93;104942;1268;77051;-81
2022/06/05 08:27:27;;;;;;;25.70;23.40;;;;;;;24.44;100.00;99298.24;105262;1268;62148;-82
2022/06/05 08:29:58;;;;;;;28.60;26.20;;;;;;;24.50;100.00;99300.83;105223;1268;73359;-80
2022/06/05 08:32:27;;;;;;;26.40;24.10;;;;;;;24.47;100.00;99298.74;105185;1268;62170;-79
2022/06/05 08:34:54;;;;;;;;;;;;;;;24.49;100.00;99297.71;105334;1268;62202;-80
2022/06/05 08:43:19;;;;;;;25.70;23.40;;;;;;;24.58;100.00;99300.63;105228;1268;74133;-82
2022/06/05 08:45:58;;;;;;;22.30;20.50;;;;;;;24.45;100.00;99301.22;105309;1268;62029;-81
2022/06/05 08:48:30;;;;;;;24.70;22.60;;;;;;;24.31;100.00;99300.67;105319;1268;61951;-80
2022/06/05 08:51:12;;;;;;;26.00;23.60;;;;;;;24.33;100.00;99296.42;105301;1268;75945;-81
2022/06/05 08:53:58;;;;;;;23.80;21.80;;;;;;;24.39;100.00;99291.92;105009;1268;69585;-81
2022/06/05 08:56:39;;;;;;;22.20;20.30;;;;;;;24.44;100.00;99286.02;105294;1268;72575;-81
2022/06/05 08:59:29;;;;;;;20.40;18.60;;;;;;;24.54;100.00;99287.79;105298;1268;62088;-80
2022/06/05 09:02:09;;;;;;;22.00;20.10;;;;;;;24.55;100.00;99282.98;105222;1268;62193;-74
2022/06/05 09:04:54;;;;;;;17.90;16.30;;;;;;;24.56;100.00;99290.32;105222;1267;75055;-76
2022/06/05 09:07:53;;;;;;;17.00;15.60;;;;;;;24.53;100.00;99285.88;105250;1268;67494;-78
2022/06/05 09:10:38;;;;;;;16.60;15.30;;;;;;;24.70;100.00;99282.08;104883;1277;73617;-78
2022/06/05 09:13:14;;;;;;;16.30;15.00;;;;;;;24.87;100.00;99287.81;104642;1276;62166;-77
2022/06/05 09:15:59;;;;;;;16.80;15.30;;;;;;;24.97;100.00;99284.94;104681;1276;61981;-78
2022/06/05 09:18:35;;;;;;;17.30;16.00;;;;;;;25.07;100.00;99288.68;104633;1276;77037;-77
2022/06/05 09:21:09;;;;;;;14.90;13.60;;;;;;;25.14;100.00;99287.33;104659;1276;69749;-78
2022/06/05 09:23:41;;;;;;;15.30;13.90;;;;;;;25.36;100.00;99286.11;104652;1276;73215;-79
2022/06/05 09:26:43;;;;;;;13.80;12.80;;;;;;;25.55;100.00;99286.88;104678;1276;62137;-77
2022/06/05 09:29:51;;;;;;;14.20;13.00;;;;;;;25.77;100.00;99283.90;104757;1276;62307;-77
2022/06/05 09:32:46;;;;;;;13.00;11.80;;;;;;;25.70;100.00;99287.52;103995;1284;75980;-76
2022/06/05 09:35:22;;;;;;;12.70;11.80;;;;;;;25.69;100.00;99288.34;103984;1284;69396;-78
2022/06/05 09:38:23;;;;;;;12.90;11.80;;;;;;;25.88;100.00;99286.35;104030;1284;72318;-77
2022/06/05 09:41:11;;;;;;;13.50;12.30;;;;;;;26.08;99.99;99286.75;103433;1290;62101;-79
2022/06/05 09:43:56;;;;;;;14.90;13.60;;;;;;;26.07;99.65;99280.45;103248;1290;62123;-80
2022/06/05 09:46:38;;;;;;;14.60;13.40;;;;;;;26.08;100.00;99282.23;103293;1285;77727;-79
2022/06/05 09:49:42;;;;;;;16.80;15.30;;;;;;;26.20;99.87;99282.30;103566;1285;68851;-79
2022/06/05 09:52:17;;;;;;;15.20;13.80;;;;;;;26.41;99.73;99284.56;103885;1285;73508;-80
2022/06/05 09:54:48;;;;;;;13.60;12.40;;;;;;;26.58;98.43;99281.36;103578;1284;62225;-78
2022/06/05 10:00:41;;;;;;;13.00;12.10;;;;;;;26.85;97.97;99276.46;104019;1285;75956;-79
2022/06/05 10:03:18;;;;;;;12.70;11.50;;;;;;;27.08;96.26;99276.38;103283;1285;69947;-79
2022/06/05 10:06:07;;;;;;;12.70;11.80;;;;;;;27.27;96.08;99273.76;103465;1286;73242;-79
2022/06/05 10:08:43;;;;;;;12.30;11.40;;;;;;;27.40;94.12;99272.55;104200;1285;62257;-79
2022/06/05 10:11:24;;;;;;;12.30;11.40;;;;;;;27.33;92.98;99273.20;103873;1286;62311;-78
2022/06/05 10:14:01;;;;;;;9.60;8.80;;;;;;;27.37;93.03;99267.44;103864;1285;77177;-80
2022/06/05 10:16:31;;;;;;;10.60;9.70;;;;;;;27.47;87.64;99271.98;103835;1285;69297;-79
2022/06/05 10:19:11;;;;;;;8.20;7.60;;;;;;;27.48;80.10;99275.70;104292;1279;73457;-81
2022/06/05 10:21:50;;;;;;;11.60;10.60;;;;;;;27.38;76.42;99274.57;104366;1279;62187;-80
2022/06/05 10:24:34;;;;;;;10.20;9.30;;;;;;;27.29;76.20;99271.91;104568;1278;61986;-80
2022/06/05 10:27:02;;;;;;;10.50;9.50;;;;;;;27.50;75.03;99260.79;104535;1277;76888;-81
2022/06/05 10:29:37;;;;;;;10.00;9.30;;;;;;;27.78;75.57;99258.09;104559;1278;68600;-81
2022/06/05 10:32:14;;;;;;;10.40;9.60;;;;;;;28.05;72.30;99261.23;104647;1276;74217;-80
2022/06/05 10:35:01;;;;;;;6.10;5.70;;;;;;;28.14;59.39;99258.59;104666;1276;62464;-79
2022/06/05 10:37:40;;;;;;;6.00;5.50;;;;;;;28.10;51.56;99253.23;104631;1276;62181;-79
2022/06/05 10:40:24;;;;;;;7.50;6.90;;;;;;;28.20;51.87;99246.23;104653;1271;76955;-79
2022/06/05 10:43:02;;;;;;;9.20;8.40;;;;;;;28.08;51.97;99249.48;105216;1271;69196;-77
2022/06/05 10:45:48;;;;;;;9.10;8.40;;;;;;;27.77;52.18;99244.23;105234;1271;75143;-79
2022/06/05 10:48:28;;;;;;;7.50;7.00;;;;;;;27.49;52.52;99247.61;105233;1271;62049;-80
2022/06/05 10:51:05;;;;;;;6.80;6.40;;;;;;;27.27;52.56;99247.77;105411;1271;62161;-81
2022/06/05 10:53:46;;;;;;;7.20;6.70;;;;;;;27.24;52.09;99243.44;104915;1271;76012;-77
2022/06/05 10:56:37;;;;;;;7.50;6.90;;;;;;;27.48;51.92;99234.73;105341;1271;69239;-80
2022/06/05 10:59:11;;;;;;;7.80;7.20;;;;;;;27.79;52.07;99230.25;105059;1268;73341;-80
2022/06/05 11:02:02;;;;;;;7.40;6.90;;;;;;;28.10;52.26;99226.58;104957;1271;62102;-79
2022/06/05 11:04:59;;;;;;;7.90;7.40;;;;;;;28.39;51.68;99220.73;105143;1271;61977;-79
2022/06/05 11:07:51;;;;;;;7.40;6.90;;;;;;;28.30;50.66;99223.45;105261;1270;75207;-79
2022/06/05 11:13:53;;;;;;;8.00;7.40;;;;;;;27.55;50.41;99223.03;104760;1277;73797;-79
2022/06/05 11:16:42;;;;;;;7.20;6.70;;;;;;;27.77;50.77;99220.46;104768;1277;62377;-79
2022/06/05 11:19:15;;;;;;;7.30;6.70;;;;;;;28.06;50.97;99219.66;104502;1277;62327;-80
2022/06/05 11:21:43;;;;;;;6.40;5.90;;;;;;;28.30;50.21;99212.08;104656;1276;76297;-82
2022/06/05 11:24:29;;;;;;;6.50;5.90;;;;;;;28.57;50.64;99209.04;104829;1277;69401;-81
2022/06/05 11:27:09;;;;;;;6.40;6.00;;;;;;;28.72;49.63;99207.34;104786;1277;73221;-80
2022/06/05 11:30:02;;;;;;;6.00;5.50;;;;;;;28.67;48.21;99209.35;104790;1277;62213;-81
2022/06/05 11:32:54;;;;;;;6.70;6.00;;;;;;;28.59;48.84;99204.60;104308;1282;62213;-80
2022/06/05 11:35:34;;;;;;;5.50;5.10;;;;;;;28.19;47.42;99209.92;104347;1283;77024;-78
2022/06/05 11:38:32;;;;;;;5.90;5.50;;;;;;;27.66;47.19;99207.55;104170;1282;69403;-75
2022/06/05 11:41:25;;;;;;;5.90;5.40;;;;;;;27.53;48.16;99202.10;104305;1281;73355;-75
2022/06/05 11:44:21;;;;;;;5.20;4.80;;;;;;;27.66;48.78;99196.80;104338;1283;62183;-76
2022/06/05 11:46:55;;;;;;;5.70;5.20;;;;;;;27.89;48.60;99199.73;103575;1288;62265;-75
2022/06/05 11:49:37;;;;;;;5.30;4.70;;;;;;;28.02;48.36;99195.81;103545;1288;77511;-75
2022/06/05 11:52:04;;;;;;;5.40;4.90;;;;;;;27.96;44.73;99197.11;104019;1282;69647;-74
2022/06/05 11:54:46;;;;;;;4.70;4.30;;;;;;;27.75;44.77;99195.34;104015;1284;62233;-76
2022/06/05 11:57:21;;;;;;;5.30;4.70;;;;;;;27.71;44.15;99193.52;103993;1282;62274;-76